Airfield :
LOGIN :

Register | Disclaimer

   EN    FR    IT 

 










Legend :    VFR   Marginal VFR   IFR   Intensive IFR   Very Intensive IFR
Visi :
Ceiling :
>= 8 km
>= 3000ft
5 to 8 km
1000 to 3000 ft
1500m to 5 km
500 to 1000 ft
800 to 1500m
200 to 500 ft
< 800m
< 200 ft
Symbols :   Thunderstorms  Fog  Heavy snow  Heavy precipitations  Wind > 20 kt
SIGMETs :     Misc.  Thunderstorms  Icing  Turbulence  Mountain Waves  Volcanic Ashes







- Airport Elevation : 129 ft
- IATA code : ZPQ


ETHE - Rheine Bentlage

CURRENT METAR :
  • 190620Z AUTO 14003KT //// // ////// 10/09 Q1012 ///

EXPIRED METARs :
  • 190520Z AUTO 14004KT //// // ////// 10/09 Q1012 ///
  • 190420Z AUTO 15003KT //// // ////// 10/09 Q1012 ///

TAF TAF ETHE
Valid from the 19 at 05:00 until the 19 at 14:00 UTC


190422Z 1905/1914 12003KT 4000 MIFG FEW040 SCT180
BECMG 1906/1908 13004KT 7000 NSW FEW040 SCT280
BECMG 1908/1910 14005KT 9999 NSW FEW100 SCT280
No reported NOTAMs for that airfield.



MET'MAP, your aeronautical weather chart ! - Copyright ORBIFLY December 2007 - Disclaimer

ORBIFLY MET'MAP TEAM :

Programming & Development : Alexandra Zaïnal
Concept & Development : Baudouin d'Aumeries
Co-Development & Prog : Marc-Olivier Méhu
Technical & hardware support : Manuel Goepfert

Contact : metmap@orbifly.com




SOURCES & CREDITS :

   NOAA